Time;durP1;ratioP1;P1;durP2;ratioP2;P2;SDS_P1;SDS_P2;PMS_P1;PMS_P2;Temp;Humidity;BMP_temperature;BMP_pressure;BME280_temperature;BME280_humidity;BME280_pressure;Samples;Min_cycle;Max_cycle;Signal;HPM_P1;HPM_P2
2021/04/14 00:02:25;;;;;;;4.50;3.17;;;3.70;99.90;;;;;;5072040;28;20032;-54
2021/04/14 00:05:33;;;;;;;5.75;3.00;;;3.60;99.90;;;;;;5062232;28;20037;-53
2021/04/14 00:08:38;;;;;;;4.20;3.35;;;3.60;99.90;;;;;;5070857;28;20493;-53
2021/04/14 00:11:42;;;;;;;4.70;3.30;;;3.60;99.90;;;;;;5071277;28;20438;-50
2021/04/14 00:14:46;;;;;;;5.50;3.45;;;3.60;99.90;;;;;;5071513;28;20045;-51
2021/04/14 00:17:50;;;;;;;8.13;4.03;;;3.60;99.90;;;;;;5071665;28;20049;-53
2021/04/14 00:20:55;;;;;;;5.10;3.53;;;3.50;99.90;;;;;;5072004;28;20036;-52
2021/04/14 00:24:00;;;;;;;6.05;3.80;;;3.60;99.90;;;;;;5072052;28;20037;-54
2021/04/14 00:27:05;;;;;;;4.20;3.10;;;3.50;99.90;;;;;;5071519;28;20045;-54
2021/04/14 00:30:10;;;;;;;5.15;3.50;;;3.50;99.90;;;;;;5072018;28;20493;-50
2021/04/14 00:33:14;;;;;;;5.60;3.60;;;3.50;99.90;;;;;;5071803;28;20048;-54
2021/04/14 00:36:19;;;;;;;7.93;4.97;;;3.40;99.90;;;;;;5071843;28;20380;-53
2021/04/14 00:39:25;;;;;;;8.43;5.05;;;3.30;99.90;;;;;;5071574;28;20036;-53
2021/04/14 00:42:29;;;;;;;10.25;6.40;;;3.20;99.90;;;;;;5071866;28;20522;-55
2021/04/14 00:45:34;;;;;;;8.38;5.38;;;3.20;99.90;;;;;;5065881;28;20040;-52
2021/04/14 00:48:37;;;;;;;11.80;6.20;;;3.20;99.90;;;;;;5064184;28;20037;-55
2021/04/14 00:51:42;;;;;;;9.32;5.88;;;3.20;99.90;;;;;;5069550;28;20786;-52
2021/04/14 00:54:47;;;;;;;9.93;5.75;;;3.10;99.90;;;;;;5069854;28;20036;-51
2021/04/14 00:57:51;;;;;;;10.68;6.15;;;3.00;99.90;;;;;;5070543;28;20048;-51
2021/04/14 01:00:56;;;;;;;8.85;5.07;;;2.90;99.90;;;;;;5071358;28;20055;-50
2021/04/14 01:04:00;;;;;;;8.95;5.97;;;3.00;99.90;;;;;;5071502;28;20037;-51
2021/04/14 01:07:04;;;;;;;8.75;5.30;;;3.00;99.90;;;;;;5058715;28;20033;-50
2021/04/14 01:10:09;;;;;;;9.88;5.55;;;3.00;99.90;;;;;;5070891;28;20040;-51
2021/04/14 01:13:15;;;;;;;8.05;4.88;;;3.00;99.90;;;;;;5070720;28;20045;-52
2021/04/14 01:16:20;;;;;;;6.10;4.05;;;3.00;99.90;;;;;;5070521;28;20040;-50
2021/04/14 01:19:25;;;;;;;5.80;3.75;;;2.80;99.90;;;;;;5070705;28;20040;-50
2021/04/14 01:22:28;;;;;;;6.85;4.25;;;2.90;99.90;;;;;;5058795;28;20044;-50
2021/04/14 01:25:37;;;;;;;5.75;4.20;;;3.00;99.90;;;;;;5070639;28;20048;-52
2021/04/14 01:28:44;;;;;;;7.53;4.55;;;2.90;99.90;;;;;;5069291;28;20620;-50
2021/04/14 01:31:48;;;;;;;6.20;4.35;;;2.90;99.90;;;;;;5070167;28;20045;-56
2021/04/14 01:34:52;;;;;;;8.75;5.72;;;2.80;99.90;;;;;;5062761;28;20036;-53
2021/04/14 01:37:56;;;;;;;10.32;5.78;;;2.80;99.90;;;;;;5070010;28;20376;-56
2021/04/14 01:41:02;;;;;;;8.00;5.13;;;2.80;99.90;;;;;;5069827;28;20040;-50
2021/04/14 01:44:11;;;;;;;13.45;6.95;;;2.70;99.90;;;;;;5069229;28;20036;-54
2021/04/14 01:47:15;;;;;;;9.27;6.32;;;2.70;99.90;;;;;;5068878;28;20514;-49
2021/04/14 01:50:19;;;;;;;10.65;5.97;;;2.60;99.90;;;;;;5069554;28;20379;-51
2021/04/14 01:53:23;;;;;;;7.40;5.30;;;2.60;99.90;;;;;;5069888;28;20395;-50
2021/04/14 01:56:28;;;;;;;10.80;5.57;;;2.60;99.90;;;;;;5069634;28;20483;-51
2021/04/14 01:59:32;;;;;;;8.48;5.18;;;2.60;99.90;;;;;;5069510;28;20039;-52
2021/04/14 02:02:36;;;;;;;7.82;5.35;;;2.50;99.90;;;;;;5069312;28;20586;-51
2021/04/14 02:05:40;;;;;;;7.82;5.68;;;2.40;99.90;;;;;;5069666;28;20495;-50
2021/04/14 02:08:45;;;;;;;9.07;5.55;;;2.40;99.90;;;;;;5069196;28;20040;-50
2021/04/14 02:11:49;;;;;;;9.25;5.85;;;2.30;99.90;;;;;;5069040;28;20036;-50
2021/04/14 02:14:53;;;;;;;10.00;6.60;;;2.30;99.90;;;;;;5069348;28;20040;-50
2021/04/14 02:17:58;;;;;;;9.88;6.35;;;2.40;99.90;;;;;;5069519;28;20051;-49
2021/04/14 02:21:03;;;;;;;12.15;8.30;;;2.30;99.90;;;;;;5067795;28;20037;-55
2021/04/14 02:24:08;;;;;;;16.45;11.50;;;2.30;99.90;;;;;;5066444;28;20047;-51
2021/04/14 02:27:12;;;;;;;13.43;8.18;;;2.40;99.90;;;;;;5067368;28;20119;-51
2021/04/14 02:30:25;;;;;;;16.60;9.88;;;2.50;99.90;;;;;;5069176;28;20040;-50
2021/04/14 02:33:30;;;;;;;14.07;9.18;;;2.50;99.90;;;;;;5069142;28;20047;-52
2021/04/14 02:36:34;;;;;;;19.48;11.23;;;2.40;99.90;;;;;;5069035;28;20413;-50
2021/04/14 02:39:38;;;;;;;18.83;11.48;;;2.40;99.90;;;;;;5069103;28;20051;-52
2021/04/14 02:42:42;;;;;;;14.75;9.23;;;2.40;99.90;;;;;;5068988;28;20613;-51
2021/04/14 02:45:47;;;;;;;15.10;9.88;;;2.40;99.90;;;;;;5055597;28;20043;-52
2021/04/14 02:48:51;;;;;;;8.90;5.72;;;2.40;99.90;;;;;;5068827;28;20039;-54
2021/04/14 02:51:55;;;;;;;10.68;5.70;;;2.40;99.90;;;;;;5069073;28;20045;-50
2021/04/14 02:55:00;;;;;;;10.20;5.63;;;2.50;99.90;;;;;;5069342;28;20549;-51
2021/04/14 02:58:04;;;;;;;9.80;6.80;;;2.50;99.90;;;;;;5069021;28;20047;-50
2021/04/14 03:01:08;;;;;;;11.23;7.97;;;2.40;99.90;;;;;;5055146;28;20048;-50
2021/04/14 03:04:13;;;;;;;10.55;6.60;;;2.40;99.90;;;;;;5068873;28;20545;-50
2021/04/14 03:07:17;;;;;;;7.25;5.20;;;2.30;99.90;;;;;;5068421;28;20047;-54
2021/04/14 03:10:23;;;;;;;8.60;5.88;;;2.30;99.90;;;;;;5068767;28;20511;-51
2021/04/14 03:13:27;;;;;;;6.82;4.32;;;2.20;99.90;;;;;;5058911;28;20051;-49
2021/04/14 03:16:32;;;;;;;8.27;4.70;;;2.10;99.90;;;;;;5056196;28;20045;-52
2021/04/14 03:19:36;;;;;;;7.45;5.07;;;2.10;99.90;;;;;;5068664;28;20028;-49
2021/04/14 03:22:40;;;;;;;6.03;4.40;;;2.10;99.90;;;;;;5071178;28;20052;-50
2021/04/14 03:25:45;;;;;;;17.33;9.98;;;2.00;99.90;;;;;;5072206;28;20032;-51
2021/04/14 03:28:48;;;;;;;18.08;10.43;;;2.00;99.90;;;;;;5072793;28;20106;-49
2021/04/14 03:31:52;;;;;;;12.18;7.55;;;1.90;99.90;;;;;;5059819;28;20047;-50
2021/04/14 03:34:57;;;;;;;10.63;7.10;;;1.90;99.90;;;;;;5070451;28;20043;-50
2021/04/14 03:38:02;;;;;;;12.82;8.10;;;1.90;99.90;;;;;;5072296;28;20075;-53
2021/04/14 03:41:06;;;;;;;13.65;8.00;;;2.20;99.90;;;;;;5071905;28;20052;-51
2021/04/14 03:44:10;;;;;;;9.93;5.93;;;2.20;99.90;;;;;;5072238;28;20043;-52
2021/04/14 03:47:15;;;;;;;18.65;11.07;;;2.20;99.90;;;;;;5059109;28;20032;-49
2021/04/14 03:50:20;;;;;;;20.73;11.00;;;2.10;99.90;;;;;;5071849;28;20592;-50
2021/04/14 03:53:30;;;;;;;19.52;11.68;;;2.10;99.90;;;;;;5072165;28;20047;-50
2021/04/14 03:56:35;;;;;;;14.45;8.32;;;2.10;99.90;;;;;;5072095;28;20043;-50
2021/04/14 03:59:39;;;;;;;9.13;6.13;;;2.00;99.90;;;;;;5072405;28;20043;-51
2021/04/14 04:02:43;;;;;;;9.55;5.38;;;2.10;99.90;;;;;;5060634;28;20040;-50
2021/04/14 04:05:47;;;;;;;12.95;6.45;;;2.10;99.90;;;;;;5072072;28;20040;-50
2021/04/14 04:08:52;;;;;;;11.98;6.00;;;2.00;99.90;;;;;;5071749;28;20035;-51
2021/04/14 04:11:56;;;;;;;11.85;7.00;;;2.00;99.90;;;;;;5071041;28;20051;-51
2021/04/14 04:15:00;;;;;;;9.88;5.95;;;2.00;99.90;;;;;;5072206;28;20047;-50
2021/04/14 04:18:05;;;;;;;9.25;5.85;;;1.90;99.90;;;;;;5071881;28;20044;-52
2021/04/14 04:21:10;;;;;;;12.13;6.88;;;1.90;99.90;;;;;;5057450;28;20041;-51
2021/04/14 04:24:14;;;;;;;8.75;6.00;;;1.80;99.90;;;;;;5071053;28;20055;-51
2021/04/14 04:27:18;;;;;;;6.97;5.05;;;1.80;99.90;;;;;;5067811;28;20036;-51
2021/04/14 04:30:23;;;;;;;8.27;5.10;;;1.80;99.90;;;;;;5070141;28;20032;-50
2021/04/14 04:33:29;;;;;;;6.53;4.65;;;1.70;99.90;;;;;;5060295;28;20025;-49
2021/04/14 04:36:33;;;;;;;6.07;4.38;;;1.70;99.90;;;;;;5072330;28;20033;-50
2021/04/14 04:39:37;;;;;;;5.72;3.88;;;1.80;99.90;;;;;;5065546;28;20040;-49
2021/04/14 04:42:41;;;;;;;8.93;5.28;;;1.90;99.90;;;;;;5062926;28;20036;-50
2021/04/14 04:45:47;;;;;;;7.07;4.82;;;1.80;99.90;;;;;;5065142;28;20036;-52
2021/04/14 04:49:07;;;;;;;18.73;4.90;;;1.80;99.90;;;;;;5068662;28;20368;-49
2021/04/14 04:52:12;;;;;;;5.65;4.10;;;1.90;99.90;;;;;;5056035;28;20047;-54
2021/04/14 04:55:16;;;;;;;9.73;4.95;;;1.90;99.90;;;;;;5054842;28;20037;-51
2021/04/14 04:58:20;;;;;;;8.13;5.45;;;2.00;99.90;;;;;;5051966;28;20041;-51
2021/04/14 05:01:25;;;;;;;21.80;12.00;;;2.10;99.90;;;;;;5053504;28;20499;-57
2021/04/14 05:04:30;;;;;;;14.02;7.95;;;2.10;99.90;;;;;;5050491;28;20044;-53
2021/04/14 05:07:34;;;;;;;19.63;10.20;;;2.30;99.90;;;;;;5053708;28;20411;-54
2021/04/14 05:10:39;;;;;;;16.70;9.82;;;2.30;99.90;;;;;;5057653;28;20043;-49
2021/04/14 05:13:43;;;;;;;20.23;10.10;;;2.20;99.90;;;;;;5057216;28;20044;-54
2021/04/14 05:16:46;;;;;;;20.98;10.60;;;2.30;99.90;;;;;;5058302;28;20403;-54
2021/04/14 05:19:51;;;;;;;21.08;11.55;;;2.30;99.90;;;;;;5058210;28;20055;-53
2021/04/14 05:22:55;;;;;;;18.92;9.63;;;2.40;99.90;;;;;;5058927;28;20035;-52
2021/04/14 05:26:00;;;;;;;20.27;11.70;;;2.40;99.90;;;;;;5051835;28;20040;-52
2021/04/14 05:29:04;;;;;;;25.42;13.10;;;2.50;99.90;;;;;;5053927;28;20526;-52
2021/04/14 05:32:08;;;;;;;22.40;11.75;;;2.50;99.90;;;;;;5061835;28;20410;-50
2021/04/14 05:35:13;;;;;;;21.70;10.60;;;2.60;99.90;;;;;;5055880;28;20047;-53
2021/04/14 05:38:18;;;;;;;21.48;10.77;;;5.40;99.90;;;;;;5063952;28;20051;-53
2021/04/14 05:41:23;;;;;;;21.88;8.48;;;8.90;99.90;;;;;;5061552;28;20047;-50
2021/04/14 05:44:27;;;;;;;8.68;5.88;;;11.60;99.90;;;;;;5061936;28;20046;-55
2021/04/14 05:47:31;;;;;;;10.35;5.60;;;12.30;99.90;;;;;;5067684;28;20044;-52
2021/04/14 05:50:35;;;;;;;7.20;3.72;;;13.40;99.90;;;;;;5050199;28;20052;-51
2021/04/14 05:53:40;;;;;;;4.85;3.38;;;13.00;99.90;;;;;;5057137;28;20043;-52
2021/04/14 05:56:44;;;;;;;5.28;3.78;;;13.30;99.90;;;;;;5067219;28;20051;-51
2021/04/14 05:59:50;;;;;;;8.23;3.47;;;14.90;99.90;;;;;;5066148;28;20028;-50
2021/04/14 06:02:54;;;;;;;4.47;2.92;;;15.90;99.90;;;;;;5054461;28;20407;-51
2021/04/14 06:05:59;;;;;;;7.65;5.20;;;16.90;99.90;;;;;;5051124;28;20044;-54
2021/04/14 06:09:05;;;;;;;4.97;2.72;;;17.20;98.60;;;;;;5054761;28;20047;-51
2021/04/14 06:12:09;;;;;;;3.90;2.80;;;14.10;99.90;;;;;;5061353;28;20048;-50
2021/04/14 06:15:20;;;;;;;6.90;4.07;;;15.20;99.90;;;;;;5068202;28;20086;-52
2021/04/14 06:18:25;;;;;;;6.45;3.80;;;16.80;99.60;;;;;;5060812;28;20040;-48
2021/04/14 06:21:29;;;;;;;5.60;3.10;;;14.00;99.90;;;;;;5063179;28;21165;-52
2021/04/14 06:24:33;;;;;;;8.25;3.70;;;16.10;99.90;;;;;;5054661;28;20420;-51
2021/04/14 06:27:48;;;;;;;6.22;4.18;;;18.00;99.20;;;;;;5056384;28;20044;-50
2021/04/14 06:30:52;;;;;;;6.32;4.38;;;18.80;95.90;;;;;;5060687;28;20048;-49
2021/04/14 06:34:18;;;;;;;8.50;4.35;;;18.40;96.10;;;;;;5058833;28;20043;-51
2021/04/14 06:37:23;;;;;;;7.35;5.38;;;18.50;97.10;;;;;;5058208;28;20040;-50
2021/04/14 06:43:53;;;;;;;3.80;3.20;;;18.70;95.00;;;;;;5049995;28;20514;-50
2021/04/14 06:46:57;;;;;;;5.72;3.60;;;19.30;94.30;;;;;;5054730;28;20052;-50
2021/04/14 06:50:25;;;;;;;6.78;3.33;;;19.90;93.60;;;;;;5056084;28;20048;-56
2021/04/14 06:53:51;;;;;;;3.80;3.25;;;20.00;93.50;;;;;;5059044;28;20044;-48
2021/04/14 06:57:00;;;;;;;10.70;3.17;;;20.30;92.40;;;;;;5063597;28;21014;-49
2021/04/14 07:00:08;;;;;;;5.38;2.95;;;20.50;92.30;;;;;;5053795;28;20360;-54
2021/04/14 07:03:22;;;;;;;2.63;2.20;;;20.80;92.40;;;;;;5062826;28;20048;-48
2021/04/14 07:06:28;;;;;;;4.15;2.30;;;20.70;87.80;;;;;;5058931;28;20510;-53
2021/04/14 07:09:45;;;;;;;2.15;1.77;;;21.00;89.30;;;;;;5072604;28;20052;-53
2021/04/14 07:12:51;;;;;;;3.60;2.15;;;21.30;86.40;;;;;;5065392;28;20047;-48
2021/04/14 07:16:26;;;;;;;8.55;2.35;;;21.70;84.80;;;;;;5055231;28;20043;-48
2021/04/14 07:19:49;;;;;;;4.45;2.10;;;20.60;86.00;;;;;;5064803;28;20040;-53
2021/04/14 07:23:17;;;;;;;2.70;1.67;;;21.30;85.10;;;;;;5062549;28;20043;-48
2021/04/14 07:26:31;;;;;;;4.65;1.67;;;22.40;82.70;;;;;;5066470;28;20040;-48
2021/04/14 07:29:45;;;;;;;2.95;2.00;;;23.00;77.80;;;;;;5071097;28;20044;-48
2021/04/14 07:33:01;;;;;;;2.60;1.80;;;20.70;78.20;;;;;;5062749;28;20046;-50
2021/04/14 07:36:19;;;;;;;2.35;1.70;;;19.40;80.90;;;;;;5051736;28;20123;-48
2021/04/14 07:39:30;;;;;;;1.92;1.55;;;19.30;86.40;;;;;;5059256;28;20056;-48
2021/04/14 07:42:45;;;;;;;3.00;1.77;;;21.10;83.30;;;;;;5057522;28;20044;-52
2021/04/14 07:45:51;;;;;;;2.38;1.60;;;22.00;77.10;;;;;;5055099;28;20652;-48
2021/04/14 07:48:57;;;;;;;1.80;1.58;;;19.00;78.90;;;;;;5051982;28;20043;-51
2021/04/14 07:52:05;;;;;;;3.75;1.92;;;18.10;85.00;;;;;;5062133;28;20047;-48
2021/04/14 07:55:25;;;;;;;2.05;1.83;;;17.50;85.40;;;;;;5058919;28;20051;-53
2021/04/14 07:58:30;;;;;;;3.00;1.70;;;20.00;87.50;;;;;;5057075;28;20047;-49
2021/04/14 08:01:37;;;;;;;6.00;2.00;;;19.50;83.80;;;;;;5062390;28;20044;-48
2021/04/14 08:04:47;;;;;;;2.63;1.75;;;19.10;82.60;;;;;;5071084;28;20039;-47
2021/04/14 08:07:51;;;;;;;2.17;1.58;;;21.20;77.60;;;;;;5068429;28;20039;-48
2021/04/14 08:11:07;;;;;;;2.20;1.30;;;22.50;76.10;;;;;;5064148;28;20035;-48
2021/04/14 08:14:38;;;;;;;1.58;1.15;;;22.20;74.40;;;;;;5069307;28;20047;-48
2021/04/14 08:17:44;;;;;;;1.90;1.35;;;20.00;73.70;;;;;;5056468;28;20036;-51
2021/04/14 08:21:04;;;;;;;7.10;5.57;;;17.50;74.80;;;;;;5075741;28;20051;-51
2021/04/14 08:24:34;;;;;;;597.33;444.63;;;16.60;78.80;;;;;;5064510;28;20060;-51
2021/04/14 08:27:46;;;;;;;3.00;2.00;;;16.30;83.10;;;;;;5054867;28;20033;-53
2021/04/14 08:30:50;;;;;;;1.90;1.48;;;16.20;82.20;;;;;;5056377;28;20052;-51
2021/04/14 08:33:54;;;;;;;2.38;1.58;;;18.40;79.80;;;;;;5057013;28;20044;-50
2021/04/14 08:37:08;;;;;;;3.50;1.70;;;19.80;75.20;;;;;;5064843;28;20654;-52
2021/04/14 08:40:25;;;;;;;8.48;1.98;;;20.20;72.80;;;;;;5070284;28;20399;-49
2021/04/14 08:43:34;;;;;;;4.43;1.20;;;22.30;73.50;;;;;;5064695;28;20036;-51
2021/04/14 08:46:40;;;;;;;287.05;211.77;;;21.40;70.10;;;;;;5070199;28;20043;-53
2021/04/14 08:49:48;;;;;;;11.13;8.27;;;17.10;72.70;;;;;;5071173;28;20502;-50
2021/04/14 08:52:56;;;;;;;2.63;1.70;;;17.80;75.30;;;;;;5070790;28;20043;-51
2021/04/14 08:56:00;;;;;;;4.57;3.30;;;21.10;68.30;;;;;;5064041;28;20039;-54
2021/04/14 08:59:04;;;;;;;2.25;1.75;;;23.10;65.40;;;;;;5056645;28;20052;-52
2021/04/14 09:02:12;;;;;;;34.95;27.90;;;23.80;64.20;;;;;;5062924;28;20044;-51
2021/04/14 09:05:20;;;;;;;3.92;2.95;;;19.70;66.10;;;;;;5058535;28;20526;-52
2021/04/14 09:08:30;;;;;;;5.43;3.65;;;15.20;67.30;;;;;;5053700;28;20052;-53
2021/04/14 09:11:36;;;;;;;2.35;1.67;;;15.30;73.90;;;;;;5068388;28;20411;-50
2021/04/14 09:14:42;;;;;;;45.30;28.58;;;19.90;73.60;;;;;;5065564;28;20063;-51
2021/04/14 09:18:04;;;;;;;2.30;1.40;;;19.60;65.10;;;;;;5051967;28;20506;-53
2021/04/14 09:21:16;;;;;;;2.65;1.50;;;18.60;65.30;;;;;;5056210;28;20044;-55
2021/04/14 09:24:43;;;;;;;1.48;1.17;;;20.50;68.30;;;;;;5052447;28;20044;-49
2021/04/14 09:27:51;;;;;;;1.25;1.10;;;20.80;63.10;;;;;;5057051;28;20526;-50
2021/04/14 09:31:15;;;;;;;1.58;1.00;;;22.00;56.20;;;;;;5059312;28;20044;-54
2021/04/14 09:34:22;;;;;;;0.98;0.70;;;23.30;63.50;;;;;;5054914;28;20043;-50
2021/04/14 09:37:32;;;;;;;1.17;0.65;;;25.10;55.60;;;;;;5062730;28;20501;-49
2021/04/14 09:40:38;;;;;;;1.63;0.80;;;23.00;54.80;;;;;;5061434;28;20047;-51
2021/04/14 09:43:45;;;;;;;1.40;1.00;;;21.80;59.00;;;;;;5062122;28;20055;-49
2021/04/14 09:46:55;;;;;;;0.88;0.88;;;21.10;56.40;;;;;;5060168;28;20047;-53
2021/04/14 09:50:21;;;;;;;2.35;0.88;;;22.20;59.00;;;;;;5065952;28;20040;-51
2021/04/14 09:53:31;;;;;;;1.23;0.90;;;24.20;55.30;;;;;;5070632;28;20055;-50
2021/04/14 09:56:36;;;;;;;1.50;1.00;;;21.60;57.80;;;;;;5068677;28;20051;-53
2021/04/14 09:59:43;;;;;;;1.52;0.80;;;21.90;59.80;;;;;;5068588;28;20054;-55
2021/04/14 10:02:50;;;;;;;2.22;0.75;;;23.90;56.50;;;;;;5064757;28;20048;-49
2021/04/14 10:05:56;;;;;;;1.88;1.30;;;24.30;56.90;;;;;;5043303;28;20056;-52
2021/04/14 10:09:32;;;;;;;2.03;1.20;;;24.70;58.50;;;;;;5057183;28;20067;-50
2021/04/14 10:12:37;;;;;;;1.45;1.10;;;26.60;53.40;;;;;;5066163;28;20055;-53
2021/04/14 10:15:44;;;;;;;1.52;1.00;;;25.20;56.30;;;;;;5069126;28;20044;-54
2021/04/14 10:18:59;;;;;;;1.85;1.33;;;23.70;59.30;;;;;;5064383;28;20052;-50
2021/04/14 10:22:19;;;;;;;2.15;1.30;;;22.30;59.40;;;;;;5064326;28;20040;-47
2021/04/14 10:25:25;;;;;;;2.20;1.35;;;21.10;60.30;;;;;;5061730;28;20403;-52
2021/04/14 10:28:29;;;;;;;2.30;1.52;;;19.60;59.80;;;;;;5069290;28;20048;-54
2021/04/14 10:31:36;;;;;;;2.75;1.77;;;18.10;64.70;;;;;;5057719;28;20047;-49
2021/04/14 10:34:40;;;;;;;1.95;1.30;;;18.60;68.50;;;;;;5069198;28;20051;-52
2021/04/14 10:37:49;;;;;;;1.83;1.10;;;19.50;66.10;;;;;;5056818;28;20043;-52
2021/04/14 10:40:54;;;;;;;1.05;0.75;;;21.50;58.30;;;;;;5055179;28;20047;-55
2021/04/14 10:43:58;;;;;;;1.48;1.08;;;20.20;54.80;;;;;;5053736;28;20043;-51
2021/04/14 10:47:11;;;;;;;3.72;1.00;;;19.20;64.60;;;;;;5058084;28;20044;-49
2021/04/14 10:50:23;;;;;;;1.15;1.02;;;18.90;54.50;;;;;;5065699;28;20047;-52
2021/04/14 10:53:35;;;;;;;4.30;2.97;;;18.60;55.50;;;;;;5067351;28;20047;-55
2021/04/14 10:56:41;;;;;;;23.42;16.65;;;20.80;56.50;;;;;;5067709;28;20518;-53
2021/04/14 10:59:47;;;;;;;21.50;16.58;;;22.80;56.40;;;;;;5068783;28;20047;-47
2021/04/14 11:02:52;;;;;;;1.23;1.00;;;23.00;52.90;;;;;;5067927;28;20056;-53
2021/04/14 11:05:58;;;;;;;0.80;0.60;;;23.10;52.00;;;;;;5065755;28;20062;-51
2021/04/14 11:09:04;;;;;;;1.48;0.85;;;25.20;51.90;;;;;;5067047;28;20047;-50
2021/04/14 11:12:12;;;;;;;0.75;0.60;;;23.40;51.20;;;;;;5062673;28;20047;-49
2021/04/14 11:15:23;;;;;;;1.52;0.90;;;21.10;52.80;;;;;;5058858;28;20052;-49
2021/04/14 11:18:34;;;;;;;1.60;1.23;;;20.00;60.40;;;;;;5059428;28;20435;-51
2021/04/14 11:21:40;;;;;;;1.63;0.95;;;19.00;57.80;;;;;;5054364;28;20418;-51
2021/04/14 11:24:49;;;;;;;1.95;0.90;;;19.00;59.80;;;;;;5070375;28;20043;-56
2021/04/14 11:28:08;;;;;;;5.30;1.05;;;17.80;60.30;;;;;;5071138;28;20047;-55
2021/04/14 11:31:29;;;;;;;2.15;1.25;;;17.20;64.80;;;;;;5072151;28;20052;-53
2021/04/14 11:34:34;;;;;;;1.02;0.77;;;16.40;65.10;;;;;;5066214;28;20047;-52
2021/04/14 11:37:46;;;;;;;1.92;0.82;;;15.90;64.10;;;;;;5062492;28;20051;-52
2021/04/14 11:40:50;;;;;;;1.10;1.00;;;15.60;62.60;;;;;;5069365;28;20039;-59
2021/04/14 11:43:55;;;;;;;1.65;1.27;;;15.50;62.00;;;;;;5073807;28;20066;-59
2021/04/14 11:47:02;;;;;;;4.47;2.88;;;15.10;65.70;;;;;;5069484;28;20047;-51
2021/04/14 11:50:21;;;;;;;4.88;1.40;;;12.20;72.60;;;;;;5071118;28;20047;-52
2021/04/14 11:53:30;;;;;;;96.38;57.72;;;12.60;77.10;;;;;;5077418;28;20027;-50
2021/04/14 11:56:39;;;;;;;13.02;8.27;;;12.30;78.50;;;;;;5068679;28;20048;-55
2021/04/14 11:59:46;;;;;;;6.63;3.85;;;12.30;79.60;;;;;;5071076;28;20047;-49
2021/04/14 12:02:56;;;;;;;22.65;11.88;;;12.60;79.20;;;;;;5065894;28;20439;-52
2021/04/14 12:06:03;;;;;;;21.02;10.98;;;12.20;81.30;;;;;;5068777;28;20592;-49
2021/04/14 12:09:07;;;;;;;5.90;1.92;;;12.30;79.10;;;;;;5070581;28;20725;-56
2021/04/14 12:12:13;;;;;;;1.83;1.35;;;13.10;82.40;;;;;;5070150;28;20040;-50
2021/04/14 12:15:18;;;;;;;4.32;2.13;;;12.90;77.20;;;;;;5074534;28;20043;-55
2021/04/14 12:18:31;;;;;;;2.55;1.73;;;12.70;78.30;;;;;;5074070;28;20039;-51
2021/04/14 12:21:35;;;;;;;3.90;2.40;;;12.60;79.80;;;;;;5057369;28;20035;-49
2021/04/14 12:24:42;;;;;;;2.08;1.70;;;12.70;78.70;;;;;;5069109;28;20051;-47
2021/04/14 12:27:46;;;;;;;2.13;1.00;;;12.40;78.20;;;;;;5069946;28;20044;-52
2021/04/14 12:30:50;;;;;;;3.72;2.10;;;12.50;77.60;;;;;;5070739;28;20039;-49
2021/04/14 12:34:06;;;;;;;2.55;2.03;;;13.10;78.10;;;;;;5061607;28;20415;-48
2021/04/14 12:37:10;;;;;;;2.63;1.50;;;14.50;77.90;;;;;;5058872;28;20043;-51
2021/04/14 12:40:23;;;;;;;2.60;1.30;;;15.60;73.80;;;;;;5059832;28;20052;-52
2021/04/14 12:43:27;;;;;;;2.38;1.80;;;15.60;71.80;;;;;;5064458;28;20059;-49
2021/04/14 12:46:32;;;;;;;2.67;1.40;;;17.30;70.70;;;;;;5063936;28;20051;-52
2021/04/14 12:49:40;;;;;;;2.08;1.20;;;18.20;68.50;;;;;;5065278;28;20095;-55
2021/04/14 12:52:48;;;;;;;4.25;1.50;;;18.00;65.90;;;;;;5064180;28;20060;-49
2021/04/14 12:55:53;;;;;;;2.13;1.20;;;17.00;67.70;;;;;;5062445;28;20052;-56
2021/04/14 12:59:05;;;;;;;1.33;1.00;;;15.90;70.40;;;;;;5071388;28;20051;-51
2021/04/14 13:02:51;;;;;;;2.13;1.35;;;16.40;68.70;;;;;;5058774;28;20063;-49
2021/04/14 13:06:01;;;;;;;3.30;1.90;;;17.90;68.10;;;;;;5065834;28;20423;-50
2021/04/14 13:09:11;;;;;;;1.70;1.23;;;19.70;65.50;;;;;;5065393;28;20067;-55
2021/04/14 13:12:22;;;;;;;3.78;1.90;;;20.70;61.90;;;;;;5068741;28;20048;-58
2021/04/14 13:15:44;;;;;;;1.70;1.42;;;22.00;61.30;;;;;;5073101;28;20051;-55
2021/04/14 13:18:50;;;;;;;1.33;1.00;;;22.20;60.10;;;;;;5074007;28;20072;-52
2021/04/14 13:22:06;;;;;;;2.00;1.60;;;21.10;60.20;;;;;;5068032;28;20277;-52
2021/04/14 13:25:34;;;;;;;6.13;1.40;;;20.30;61.00;;;;;;5072821;28;20039;-55
2021/04/14 13:28:47;;;;;;;1.80;1.13;;;18.80;63.50;;;;;;5071168;28;20039;-51
2021/04/14 13:32:18;;;;;;;1.52;1.10;;;18.70;66.20;;;;;;5070477;28;20043;-53
2021/04/14 13:35:28;;;;;;;3.20;2.20;;;18.00;63.90;;;;;;5068824;28;20039;-50
2021/04/14 13:38:34;;;;;;;1.38;1.08;;;18.00;65.90;;;;;;5069242;28;20474;-49
2021/04/14 13:41:44;;;;;;;3.92;3.40;;;17.50;66.50;;;;;;5069897;28;20055;-49
2021/04/14 13:44:57;;;;;;;1.25;1.10;;;17.60;65.60;;;;;;5070057;28;20047;-51
2021/04/14 13:48:13;;;;;;;5.47;1.35;;;18.00;63.90;;;;;;5061556;28;20044;-49
2021/04/14 13:51:43;;;;;;;1.60;1.08;;;18.20;64.20;;;;;;5060404;28;20040;-50
2021/04/14 13:54:50;;;;;;;7.78;5.72;;;17.80;66.60;;;;;;5061712;28;20047;-49
2021/04/14 13:58:17;;;;;;;7.55;4.82;;;17.80;65.80;;;;;;5069649;28;20051;-49
2021/04/14 14:01:24;;;;;;;12.68;8.85;;;17.90;67.20;;;;;;5060058;28;20060;-50
2021/04/14 14:04:30;;;;;;;3.78;2.00;;;18.10;66.00;;;;;;5067955;28;20039;-51
2021/04/14 14:07:45;;;;;;;3.63;2.28;;;18.10;65.00;;;;;;5068426;28;20039;-50
2021/04/14 14:11:03;;;;;;;3.45;1.10;;;18.10;65.70;;;;;;5069280;28;20301;-48
2021/04/14 14:14:11;;;;;;;3.25;1.00;;;17.20;61.30;;;;;;5069160;28;20043;-49
2021/04/14 14:17:29;;;;;;;11.25;7.03;;;16.00;66.20;;;;;;5069270;28;20043;-51
2021/04/14 14:20:33;;;;;;;39.00;25.17;;;15.40;67.80;;;;;;5069471;28;20418;-50
2021/04/14 14:23:41;;;;;;;10.85;4.18;;;14.20;65.40;;;;;;5060560;28;20406;-50
2021/04/14 14:26:49;;;;;;;2.67;1.00;;;14.10;71.60;;;;;;5069009;28;20047;-50
2021/04/14 14:29:53;;;;;;;1.65;0.90;;;15.00;68.60;;;;;;5069066;28;20111;-49
2021/04/14 14:32:59;;;;;;;2.67;1.00;;;15.50;69.30;;;;;;5068832;28;20048;-53
2021/04/14 14:36:30;;;;;;;2.20;1.10;;;15.80;69.70;;;;;;5068960;28;20514;-52
2021/04/14 14:39:50;;;;;;;2.95;1.20;;;15.90;67.00;;;;;;5068781;28;20043;-49
2021/04/14 14:43:18;;;;;;;1.77;1.23;;;16.10;67.00;;;;;;5068729;28;20039;-51
2021/04/14 14:46:31;;;;;;;5.60;1.55;;;16.20;67.50;;;;;;5068685;28;20206;-49
2021/04/14 14:49:40;;;;;;;6.22;3.60;;;16.90;67.30;;;;;;5068694;28;20048;-49
2021/04/14 14:52:46;;;;;;;3.53;1.02;;;17.50;67.50;;;;;;5068901;28;20055;-49
2021/04/14 14:55:53;;;;;;;2.30;1.00;;;17.50;64.90;;;;;;5068955;28;20123;-49
2021/04/14 14:58:58;;;;;;;1.63;1.17;;;16.70;66.20;;;;;;5068735;28;20051;-51
2021/04/14 15:02:14;;;;;;;1.60;1.15;;;16.30;69.80;;;;;;5068888;28;20047;-49
2021/04/14 15:05:20;;;;;;;2.55;1.40;;;16.60;67.60;;;;;;5069314;28;20055;-50
2021/04/14 15:08:25;;;;;;;2.10;1.17;;;16.60;68.90;;;;;;5068823;28;20067;-51
2021/04/14 15:11:29;;;;;;;1.77;0.95;;;16.70;67.10;;;;;;5069414;28;20047;-51
2021/04/14 15:14:34;;;;;;;3.80;1.27;;;16.90;67.20;;;;;;5069608;28;20048;-50
2021/04/14 15:17:39;;;;;;;2.90;1.20;;;16.90;67.40;;;;;;5070757;28;20048;-52
2021/04/14 15:20:43;;;;;;;2.58;1.40;;;17.10;68.90;;;;;;5072776;28;20441;-49
2021/04/14 15:23:47;;;;;;;2.72;1.40;;;17.00;69.70;;;;;;5073276;28;20051;-49
2021/04/14 15:26:53;;;;;;;2.72;1.30;;;16.90;69.20;;;;;;5072858;28;20048;-49
2021/04/14 15:29:59;;;;;;;3.60;1.63;;;16.70;69.70;;;;;;5073124;28;20047;-49
2021/04/14 15:33:05;;;;;;;2.45;1.42;;;16.60;70.10;;;;;;5072977;28;20044;-49
2021/04/14 15:36:12;;;;;;;2.22;1.23;;;16.50;70.00;;;;;;5072976;28;20047;-49
2021/04/14 15:39:18;;;;;;;3.53;1.40;;;16.30;70.80;;;;;;5072477;28;20052;-53
2021/04/14 15:42:23;;;;;;;2.63;1.23;;;16.20;71.70;;;;;;5072694;28;20608;-49
2021/04/14 15:45:29;;;;;;;4.40;1.58;;;15.90;68.80;;;;;;5072792;28;20057;-59
2021/04/14 15:48:34;;;;;;;6.15;2.35;;;15.30;69.40;;;;;;5072440;28;20044;-56
2021/04/14 15:51:39;;;;;;;3.33;1.90;;;15.00;69.20;;;;;;5072195;28;20032;-49
2021/04/14 15:54:44;;;;;;;4.22;2.38;;;14.60;69.60;;;;;;5072097;28;20395;-49
2021/04/14 15:57:49;;;;;;;7.18;5.03;;;14.50;71.30;;;;;;5071842;28;20055;-48
2021/04/14 16:00:54;;;;;;;5.05;1.92;;;14.50;71.40;;;;;;5071955;28;20044;-49
2021/04/14 16:04:08;;;;;;;3.20;1.92;;;14.40;71.40;;;;;;5071762;28;20048;-49
2021/04/14 16:07:20;;;;;;;3.00;1.90;;;14.30;69.90;;;;;;5071547;28;20056;-51
2021/04/14 16:10:25;;;;;;;4.00;1.95;;;14.30;71.00;;;;;;5071324;28;20506;-50
2021/04/14 16:13:30;;;;;;;3.53;1.67;;;14.30;71.20;;;;;;5071627;28;20055;-48
2021/04/14 16:16:34;;;;;;;5.00;1.98;;;14.00;69.90;;;;;;5071448;28;20051;-48
2021/04/14 16:19:38;;;;;;;4.82;2.28;;;13.90;72.50;;;;;;5071605;28;20047;-48
2021/04/14 16:22:42;;;;;;;4.32;2.30;;;14.10;72.00;;;;;;5071499;28;20059;-48
2021/04/14 16:25:48;;;;;;;3.05;2.10;;;14.10;72.30;;;;;;5071253;28;20135;-51